Time;durP1;ratioP1;P1;durP2;ratioP2;P2;SDS_P1;SDS_P2;PMS_P1;PMS_P2;Temp;Humidity;BMP_temperature;BMP_pressure;BME280_temperature;BME280_humidity;BME280_pressure;Samples;Min_cycle;Max_cycle;Signal;HPM_P1;HPM_P2
2021/05/29 00:02:11;;;;;;;3.00;2.30;;;16.70;71.00;;;;;;5122118;27;20475;-51
2021/05/29 00:04:37;;;;;;;3.80;2.40;;;16.80;71.10;;;;;;5120475;27;20044;-50
2021/05/29 00:07:03;;;;;;;2.50;2.13;;;16.70;71.00;;;;;;5124515;27;20150;-51
2021/05/29 00:09:29;;;;;;;2.97;2.25;;;16.80;71.10;;;;;;5124034;27;20123;-50
2021/05/29 00:11:55;;;;;;;2.47;2.28;;;16.70;71.00;;;;;;5123943;27;20047;-51
2021/05/29 00:14:21;;;;;;;2.88;2.15;;;16.80;71.10;;;;;;5123582;27;20040;-52
2021/05/29 00:16:47;;;;;;;2.83;2.22;;;16.70;71.10;;;;;;5121906;27;20075;-50
2021/05/29 00:19:13;;;;;;;3.63;2.22;;;16.70;71.10;;;;;;5122882;27;20055;-48
2021/05/29 00:21:38;;;;;;;2.15;1.95;;;16.70;71.10;;;;;;5122696;27;20509;-51
2021/05/29 00:24:05;;;;;;;2.35;2.13;;;16.70;71.10;;;;;;5104850;27;20044;-52
2021/05/29 00:26:31;;;;;;;2.45;1.92;;;16.70;71.10;;;;;;5122780;27;20139;-50
2021/05/29 00:28:56;;;;;;;2.47;1.90;;;16.70;71.10;;;;;;5122672;27;20071;-52
2021/05/29 00:31:22;;;;;;;3.17;2.08;;;16.70;71.10;;;;;;5123917;27;20439;-49
2021/05/29 00:33:48;;;;;;;2.10;1.90;;;16.70;71.10;;;;;;5123868;27;20118;-49
2021/05/29 00:36:14;;;;;;;3.28;2.22;;;16.70;71.10;;;;;;5122217;27;20039;-52
2021/05/29 00:38:39;;;;;;;3.33;2.33;;;16.70;71.10;;;;;;5123930;27;20050;-51
2021/05/29 00:41:09;;;;;;;2.60;2.38;;;16.80;71.20;;;;;;5122782;27;20055;-51
2021/05/29 00:43:36;;;;;;;3.70;2.40;;;16.70;71.10;;;;;;5123189;27;20432;-49
2021/05/29 00:46:03;;;;;;;3.03;2.13;;;16.70;71.10;;;;;;5122459;27;20048;-48
2021/05/29 00:48:28;;;;;;;2.83;1.90;;;16.70;71.20;;;;;;5122039;27;20043;-46
2021/05/29 00:51:00;;;;;;;1.85;1.65;;;16.70;71.10;;;;;;5123228;27;20046;-51
2021/05/29 00:53:27;;;;;;;2.65;2.40;;;16.70;71.20;;;;;;5121536;27;20117;-46
2021/05/29 00:55:54;;;;;;;2.65;1.90;;;16.70;71.20;;;;;;5123177;27;20039;-49
2021/05/29 00:58:21;;;;;;;2.80;2.15;;;16.70;71.20;;;;;;5122771;27;20051;-50
2021/05/29 01:00:48;;;;;;;2.35;2.03;;;16.70;71.20;;;;;;5122399;27;20157;-48
2021/05/29 01:03:14;;;;;;;3.58;2.30;;;16.70;71.20;;;;;;5122552;27;20078;-46
2021/05/29 01:05:39;;;;;;;2.53;1.83;;;16.70;71.20;;;;;;5121852;27;20071;-46
2021/05/29 01:08:05;;;;;;;1.85;1.65;;;16.70;71.20;;;;;;5121674;27;20054;-48
2021/05/29 01:10:32;;;;;;;2.25;2.00;;;16.70;71.20;;;;;;5123490;27;20205;-48
2021/05/29 01:13:00;;;;;;;2.60;2.40;;;16.70;71.20;;;;;;5123307;27;20043;-48
2021/05/29 01:15:33;;;;;;;3.55;1.95;;;16.70;71.20;;;;;;5124140;27;20055;-48
2021/05/29 01:17:58;;;;;;;3.17;2.45;;;16.70;71.20;;;;;;5122341;27;20047;-47
2021/05/29 01:20:24;;;;;;;2.33;2.13;;;16.70;71.30;;;;;;5123814;27;20104;-50
2021/05/29 01:22:52;;;;;;;2.45;2.25;;;16.70;71.30;;;;;;5123259;27;20050;-48
2021/05/29 01:25:50;;;;;;;2.20;2.00;;;16.70;71.30;;;;;;5122911;27;20050;-49
2021/05/29 01:28:28;;;;;;;2.53;1.95;;;16.70;71.30;;;;;;5047104;28;20041;-45
2021/05/29 01:31:06;;;;;;;2.85;1.92;;;16.70;71.30;;;;;;5047398;28;20045;-49
2021/05/29 01:33:34;;;;;;;2.55;1.88;;;16.70;71.30;;;;;;5048948;28;20103;-48
2021/05/29 01:36:08;;;;;;;2.03;1.70;;;16.70;71.30;;;;;;5049717;28;20053;-49
2021/05/29 01:38:37;;;;;;;3.85;2.33;;;16.70;71.40;;;;;;5047258;28;20123;-48
2021/05/29 01:41:12;;;;;;;2.33;2.10;;;16.70;71.30;;;;;;5049181;28;20049;-45
2021/05/29 01:43:41;;;;;;;3.10;2.15;;;16.70;71.40;;;;;;5047311;28;20397;-48
2021/05/29 01:46:09;;;;;;;2.38;2.03;;;16.70;71.40;;;;;;5049138;28;20041;-50
2021/05/29 01:48:41;;;;;;;3.80;2.10;;;16.70;71.40;;;;;;5049400;28;20045;-47
2021/05/29 01:51:07;;;;;;;1.92;1.80;;;16.70;71.80;;;;;;5048751;28;20041;-46
2021/05/29 01:53:34;;;;;;;2.10;1.90;;;16.70;71.40;;;;;;5048827;28;20045;-51
2021/05/29 01:56:00;;;;;;;2.33;2.00;;;16.70;71.40;;;;;;5050161;28;20589;-48
2021/05/29 01:58:27;;;;;;;2.60;2.00;;;16.70;71.40;;;;;;5068986;28;20136;-47
2021/05/29 02:00:53;;;;;;;2.20;2.00;;;16.60;71.40;;;;;;5068650;28;20059;-49
2021/05/29 02:03:19;;;;;;;2.20;2.00;;;16.60;71.40;;;;;;5080276;28;20473;-47
2021/05/29 02:05:44;;;;;;;2.30;2.10;;;16.70;71.40;;;;;;5112104;28;20547;-48
2021/05/29 02:08:12;;;;;;;2.50;2.20;;;16.70;71.50;;;;;;5108988;28;20040;-47
2021/05/29 02:10:39;;;;;;;2.30;2.10;;;16.70;71.40;;;;;;5112067;28;20043;-47
2021/05/29 02:13:09;;;;;;;2.10;1.90;;;16.70;72.10;;;;;;5111491;28;20055;-44
2021/05/29 02:15:40;;;;;;;2.38;2.17;;;16.70;71.50;;;;;;5109404;28;20467;-46
2021/05/29 02:18:10;;;;;;;2.30;2.08;;;16.70;71.50;;;;;;5111924;28;20043;-46
2021/05/29 02:20:45;;;;;;;2.95;1.95;;;16.60;71.40;;;;;;5111939;28;20519;-46
2021/05/29 02:23:16;;;;;;;2.20;2.00;;;16.60;71.40;;;;;;5109051;28;20048;-47
2021/05/29 02:25:42;;;;;;;2.60;1.75;;;16.70;71.50;;;;;;5112039;28;20437;-50
2021/05/29 02:28:08;;;;;;;2.65;2.22;;;16.70;71.50;;;;;;5111472;28;20126;-47
2021/05/29 02:30:35;;;;;;;2.72;2.30;;;16.70;71.50;;;;;;5111633;28;20050;-47
2021/05/29 02:33:01;;;;;;;1.95;1.65;;;16.60;71.40;;;;;;5111347;28;20043;-45
2021/05/29 02:35:27;;;;;;;2.50;1.92;;;16.70;71.60;;;;;;5111919;28;20039;-46
2021/05/29 02:38:13;;;;;;;2.85;2.20;;;16.70;71.50;;;;;;5094616;28;20125;-49
2021/05/29 02:40:39;;;;;;;2.65;2.28;;;16.60;71.50;;;;;;5112990;28;20047;-50
2021/05/29 02:43:05;;;;;;;2.63;2.25;;;16.60;71.40;;;;;;5114579;28;20047;-50
2021/05/29 02:45:31;;;;;;;2.47;2.15;;;16.70;72.20;;;;;;5113050;28;20542;-45
2021/05/29 02:47:57;;;;;;;3.58;2.30;;;16.60;71.50;;;;;;5115703;28;20039;-52
2021/05/29 02:50:24;;;;;;;2.30;1.90;;;16.60;71.50;;;;;;5115067;28;20035;-51
2021/05/29 02:52:50;;;;;;;2.58;2.08;;;16.60;71.50;;;;;;5114835;28;20050;-50
2021/05/29 02:55:22;;;;;;;2.08;1.80;;;16.70;71.60;;;;;;5114985;28;20103;-51
2021/05/29 02:57:50;;;;;;;2.10;1.73;;;16.60;71.50;;;;;;5120091;27;20048;-46
2021/05/29 03:00:18;;;;;;;2.30;2.05;;;16.60;71.50;;;;;;5125248;27;20042;-48
2021/05/29 03:02:43;;;;;;;2.13;1.92;;;16.60;71.50;;;;;;5124866;27;20039;-50
2021/05/29 03:05:10;;;;;;;3.00;2.22;;;16.60;71.50;;;;;;5124552;27;20039;-46
2021/05/29 03:07:36;;;;;;;2.70;2.08;;;16.60;71.50;;;;;;5125532;27;20046;-45
2021/05/29 03:10:06;;;;;;;2.40;2.20;;;16.60;71.50;;;;;;5123511;27;20511;-49
2021/05/29 03:12:34;;;;;;;2.47;1.80;;;16.60;71.50;;;;;;5121628;27;20065;-48
2021/05/29 03:15:00;;;;;;;2.45;1.83;;;16.60;71.60;;;;;;5123190;27;20069;-52
2021/05/29 03:17:25;;;;;;;1.98;1.75;;;16.60;71.50;;;;;;5125340;27;20483;-50
2021/05/29 03:19:51;;;;;;;2.55;1.90;;;16.60;71.60;;;;;;5123511;27;20043;-48
2021/05/29 03:22:17;;;;;;;3.50;2.10;;;16.60;71.60;;;;;;5124264;27;20051;-47
2021/05/29 03:24:43;;;;;;;2.55;2.13;;;16.60;71.60;;;;;;5122222;27;20075;-49
2021/05/29 03:27:08;;;;;;;2.17;1.98;;;16.60;71.60;;;;;;5123126;27;20043;-49
2021/05/29 03:29:34;;;;;;;3.70;2.17;;;16.60;71.60;;;;;;5124682;27;20032;-49
2021/05/29 03:32:00;;;;;;;2.20;2.00;;;16.60;71.60;;;;;;5122727;27;20181;-50
2021/05/29 03:34:25;;;;;;;2.13;1.85;;;16.60;71.60;;;;;;5124227;27;20043;-42
2021/05/29 03:36:51;;;;;;;2.15;1.95;;;16.60;71.60;;;;;;5124199;27;20074;-44
2021/05/29 03:39:17;;;;;;;2.30;2.00;;;16.60;71.60;;;;;;5123925;27;20038;-44
2021/05/29 03:41:42;;;;;;;2.90;2.15;;;16.60;71.60;;;;;;5123747;27;20130;-45
2021/05/29 03:44:08;;;;;;;2.28;1.88;;;16.60;71.60;;;;;;5124343;27;20055;-45
2021/05/29 03:46:34;;;;;;;2.20;2.00;;;16.60;71.60;;;;;;5124447;27;20115;-44
2021/05/29 03:48:59;;;;;;;2.05;1.85;;;16.60;71.60;;;;;;5123080;27;20051;-44
2021/05/29 03:51:25;;;;;;;2.05;1.85;;;16.60;71.60;;;;;;5123279;27;20047;-45
2021/05/29 03:53:51;;;;;;;2.40;2.08;;;16.60;71.60;;;;;;5123637;27;20043;-43
2021/05/29 03:56:17;;;;;;;2.00;1.80;;;16.60;71.60;;;;;;5123602;27;20440;-44
2021/05/29 03:58:43;;;;;;;2.35;1.90;;;16.60;71.60;;;;;;5122327;27;20401;-44
2021/05/29 04:01:09;;;;;;;2.15;1.95;;;16.60;71.60;;;;;;5123963;27;20050;-44
2021/05/29 04:03:36;;;;;;;3.08;2.15;;;16.60;71.60;;;;;;5122146;27;20043;-44
2021/05/29 04:06:01;;;;;;;2.17;1.98;;;16.60;71.60;;;;;;5123250;27;20039;-44
2021/05/29 04:08:27;;;;;;;2.30;2.00;;;16.60;71.60;;;;;;5122577;27;20035;-44
2021/05/29 04:10:53;;;;;;;2.20;2.00;;;16.60;71.60;;;;;;5123780;27;20116;-45
2021/05/29 04:13:18;;;;;;;2.53;2.00;;;16.60;71.60;;;;;;5124531;27;20403;-47
2021/05/29 04:15:44;;;;;;;2.53;2.10;;;16.60;71.60;;;;;;5122585;27;20035;-44
2021/05/29 04:18:10;;;;;;;1.88;1.77;;;16.60;71.60;;;;;;5124207;27;20461;-44
2021/05/29 04:20:36;;;;;;;2.58;2.05;;;16.60;71.60;;;;;;5122444;27;20463;-44
2021/05/29 04:23:01;;;;;;;2.53;1.92;;;16.60;71.60;;;;;;5121414;27;20047;-45
2021/05/29 04:25:29;;;;;;;2.33;2.13;;;16.60;71.60;;;;;;5124358;27;20126;-45
2021/05/29 04:27:56;;;;;;;2.10;1.90;;;16.60;71.60;;;;;;5123247;27;20035;-44
2021/05/29 04:30:25;;;;;;;2.47;1.90;;;16.60;71.70;;;;;;5123299;27;20058;-46
2021/05/29 04:32:50;;;;;;;2.75;2.05;;;16.60;71.60;;;;;;5124029;27;20047;-44
2021/05/29 04:35:17;;;;;;;2.42;2.22;;;16.60;71.70;;;;;;5121678;27;20149;-45
2021/05/29 04:37:45;;;;;;;2.30;2.10;;;16.60;71.70;;;;;;5122630;27;20044;-44
2021/05/29 04:40:12;;;;;;;2.67;2.08;;;16.60;71.70;;;;;;5115179;27;20115;-44
2021/05/29 04:42:38;;;;;;;1.80;1.45;;;16.60;71.70;;;;;;5113271;28;20095;-43
2021/05/29 04:45:06;;;;;;;2.05;1.85;;;16.60;71.70;;;;;;5113682;28;20048;-43
2021/05/29 04:47:32;;;;;;;2.17;1.98;;;16.60;71.70;;;;;;5113069;28;20487;-45
2021/05/29 04:49:58;;;;;;;2.20;1.83;;;16.60;71.70;;;;;;5113221;28;20101;-44
2021/05/29 04:52:24;;;;;;;2.33;1.90;;;16.60;71.70;;;;;;5113208;28;20062;-46
2021/05/29 04:54:49;;;;;;;2.53;1.90;;;16.60;71.70;;;;;;5113591;28;20483;-44
2021/05/29 04:57:15;;;;;;;2.70;1.95;;;16.60;71.70;;;;;;5122675;27;20051;-45
2021/05/29 04:59:41;;;;;;;2.28;2.08;;;16.60;71.70;;;;;;5115501;27;20050;-44
2021/05/29 05:02:07;;;;;;;2.38;2.17;;;16.60;71.70;;;;;;5133167;27;20043;-47
2021/05/29 05:04:33;;;;;;;2.33;1.70;;;16.60;71.70;;;;;;5132952;27;20046;-44
2021/05/29 05:06:59;;;;;;;2.63;2.20;;;16.60;71.70;;;;;;5133243;27;20392;-46
2021/05/29 05:09:25;;;;;;;3.05;2.08;;;16.60;71.70;;;;;;5133435;27;20047;-45
2021/05/29 05:11:51;;;;;;;2.22;2.03;;;16.60;71.70;;;;;;5132900;27;20035;-51
2021/05/29 05:14:17;;;;;;;2.20;2.00;;;16.60;71.70;;;;;;5133772;27;20047;-52
2021/05/29 05:16:43;;;;;;;2.30;2.10;;;16.60;71.70;;;;;;5133359;27;20035;-52
2021/05/29 05:19:09;;;;;;;3.55;2.20;;;16.60;71.70;;;;;;5133217;27;20043;-51
2021/05/29 05:21:35;;;;;;;2.10;1.88;;;16.60;71.70;;;;;;5132599;27;20043;-52
2021/05/29 05:24:00;;;;;;;2.00;1.77;;;16.60;71.70;;;;;;5132693;27;20078;-51
2021/05/29 05:26:26;;;;;;;1.63;1.52;;;16.60;71.70;;;;;;5133430;27;20062;-52
2021/05/29 05:28:52;;;;;;;2.60;2.15;;;16.60;71.70;;;;;;5132937;27;20452;-52
2021/05/29 05:31:18;;;;;;;2.03;1.83;;;16.60;71.70;;;;;;5133475;27;20475;-48
2021/05/29 05:33:46;;;;;;;3.45;2.25;;;16.60;71.70;;;;;;5132718;27;20043;-45
2021/05/29 05:36:13;;;;;;;2.60;2.22;;;16.60;71.70;;;;;;5132834;28;20468;-49
2021/05/29 05:38:40;;;;;;;2.05;1.85;;;16.60;71.70;;;;;;5132788;28;20085;-51
2021/05/29 05:41:08;;;;;;;2.00;1.80;;;16.60;71.70;;;;;;5133030;28;20071;-48
2021/05/29 05:43:35;;;;;;;2.58;2.00;;;16.60;72.40;;;;;;5132116;28;20051;-51
2021/05/29 05:46:02;;;;;;;2.00;1.70;;;16.60;71.70;;;;;;5133037;28;20062;-50
2021/05/29 05:48:28;;;;;;;2.70;2.10;;;16.60;71.70;;;;;;5132958;28;20043;-51
2021/05/29 05:50:59;;;;;;;2.70;1.88;;;16.60;71.70;;;;;;5133161;28;20448;-48
2021/05/29 05:53:27;;;;;;;2.47;1.92;;;16.70;71.80;;;;;;5132535;28;20047;-48
2021/05/29 05:56:02;;;;;;;2.08;1.65;;;16.50;71.70;;;;;;5131950;28;20063;-51
2021/05/29 05:58:28;;;;;;;;;;;16.60;71.80;;;;;;5123657;28;20131;-43
2021/05/29 06:00:55;;;;;;;2.75;1.90;;;16.60;71.70;;;;;;5123223;28;20272;-46
2021/05/29 06:03:22;;;;;;;2.53;2.10;;;16.60;71.80;;;;;;5114509;28;20046;-46
2021/05/29 06:05:48;;;;;;;2.20;1.80;;;16.60;71.80;;;;;;5113814;28;20061;-47
2021/05/29 06:08:15;;;;;;;2.25;2.05;;;16.60;71.80;;;;;;5132476;28;20108;-47
2021/05/29 06:10:40;;;;;;;2.13;1.92;;;16.60;71.80;;;;;;5120216;28;20487;-45
2021/05/29 06:13:16;;;;;;;2.72;1.95;;;16.60;71.80;;;;;;5112235;28;20082;-46
2021/05/29 06:21:11;;;;;;;1.73;1.60;;;16.60;71.80;;;;;;5115928;28;20135;-44
2021/05/29 06:23:37;;;;;;;3.22;2.00;;;16.60;71.80;;;;;;5134471;27;20463;-47
2021/05/29 06:26:03;;;;;;;2.10;1.88;;;16.50;71.70;;;;;;5136853;27;20043;-49
2021/05/29 06:28:29;;;;;;;2.10;1.90;;;16.60;71.80;;;;;;5136467;27;20462;-48
2021/05/29 06:30:55;;;;;;;2.50;1.95;;;16.70;71.80;;;;;;5136556;27;20039;-47
2021/05/29 06:33:20;;;;;;;1.83;1.52;;;16.60;71.80;;;;;;5136479;27;20051;-47
2021/05/29 06:35:46;;;;;;;2.00;1.80;;;16.60;71.80;;;;;;5136508;27;20054;-39
2021/05/29 06:38:12;;;;;;;2.53;2.08;;;16.60;71.80;;;;;;5136025;27;20050;-46
2021/05/29 06:40:38;;;;;;;2.10;1.90;;;16.60;71.80;;;;;;5136698;27;20055;-47
2021/05/29 06:43:03;;;;;;;2.00;1.70;;;16.60;71.80;;;;;;5123735;27;20047;-48
2021/05/29 06:45:31;;;;;;;2.08;1.77;;;16.60;71.80;;;;;;5115652;28;20047;-41
2021/05/29 06:47:57;;;;;;;2.10;1.88;;;16.60;72.50;;;;;;5115932;28;20070;-43
2021/05/29 06:50:23;;;;;;;2.17;1.92;;;16.60;71.80;;;;;;5115613;28;20064;-45
2021/05/29 06:52:52;;;;;;;2.42;1.80;;;16.60;71.80;;;;;;5115382;28;20052;-41
2021/05/29 07:00:46;;;;;;;1.90;1.70;;;16.60;71.80;;;;;;5136641;27;20039;-41
2021/05/29 07:03:12;;;;;;;2.15;1.95;;;16.60;71.80;;;;;;5135980;27;20506;-47
2021/05/29 07:05:38;;;;;;;2.10;1.77;;;16.60;71.80;;;;;;5136163;27;20051;-46
2021/05/29 07:08:04;;;;;;;14.27;9.10;;;16.70;71.80;;;;;;5117211;27;20054;-48
2021/05/29 07:10:30;;;;;;;9.02;6.38;;;16.60;71.50;;;;;;5135507;27;20460;-45
2021/05/29 07:12:56;;;;;;;8.07;5.18;;;16.50;71.50;;;;;;5135568;27;20486;-48
2021/05/29 07:15:26;;;;;;;9.75;5.93;;;16.50;71.50;;;;;;5117036;27;20047;-43
2021/05/29 07:17:54;;;;;;;7.72;5.78;;;16.50;71.50;;;;;;5135204;27;20367;-45
2021/05/29 07:20:20;;;;;;;6.85;5.68;;;16.50;71.60;;;;;;5135819;27;20047;-46
2021/05/29 07:22:46;;;;;;;7.78;6.07;;;16.50;71.60;;;;;;5135775;27;20072;-47
2021/05/29 07:25:12;;;;;;;9.52;5.28;;;16.50;71.60;;;;;;5134566;27;20470;-43
2021/05/29 07:27:38;;;;;;;6.80;4.93;;;16.50;71.60;;;;;;5134907;27;20054;-44
2021/05/29 07:30:07;;;;;;;8.65;4.90;;;16.50;71.60;;;;;;5135465;27;20039;-47
2021/05/29 07:32:34;;;;;;;7.30;4.90;;;16.50;71.60;;;;;;5135332;27;20051;-46
2021/05/29 07:35:00;;;;;;;7.70;4.55;;;16.50;71.60;;;;;;5134977;27;20039;-49
2021/05/29 07:37:26;;;;;;;8.75;5.95;;;16.50;71.60;;;;;;5135408;27;20043;-50
2021/05/29 07:39:51;;;;;;;7.30;5.40;;;16.50;71.60;;;;;;5135278;27;20054;-48
2021/05/29 07:42:17;;;;;;;6.07;4.55;;;16.50;71.60;;;;;;5134725;27;20122;-47
2021/05/29 07:44:43;;;;;;;6.63;4.90;;;16.50;71.60;;;;;;5134833;27;20051;-49
2021/05/29 07:47:08;;;;;;;6.70;4.68;;;16.50;71.60;;;;;;5134938;27;20103;-47
2021/05/29 07:49:34;;;;;;;7.05;4.80;;;16.50;71.60;;;;;;5134921;27;20047;-50
2021/05/29 07:52:00;;;;;;;7.20;4.68;;;16.50;71.70;;;;;;5135114;27;20506;-49
2021/05/29 07:54:25;;;;;;;7.25;5.30;;;16.50;71.70;;;;;;5134902;27;20490;-46
2021/05/29 07:56:52;;;;;;;5.15;4.30;;;16.50;71.70;;;;;;5134107;27;20043;-49
2021/05/29 07:59:18;;;;;;;5.78;4.40;;;16.50;71.70;;;;;;5134688;27;20083;-47
2021/05/29 08:01:44;;;;;;;6.72;4.50;;;16.60;71.70;;;;;;5134781;27;20055;-49
2021/05/29 08:04:12;;;;;;;5.40;4.40;;;16.60;71.70;;;;;;5115561;27;20051;-51
2021/05/29 08:06:39;;;;;;;5.95;4.30;;;16.60;71.70;;;;;;5132232;27;20479;-45
2021/05/29 08:09:06;;;;;;;6.30;4.50;;;16.60;71.70;;;;;;5134717;27;20051;-43
2021/05/29 08:11:33;;;;;;;5.85;4.15;;;16.60;72.40;;;;;;5134236;27;20157;-47
2021/05/29 08:13:59;;;;;;;5.95;4.32;;;16.60;71.70;;;;;;5134547;27;20047;-45
2021/05/29 08:16:25;;;;;;;6.15;4.40;;;16.60;71.70;;;;;;5133292;27;20050;-41
2021/05/29 08:18:52;;;;;;;4.85;4.03;;;16.60;71.70;;;;;;5133490;27;20082;-41
2021/05/29 08:21:18;;;;;;;4.75;3.67;;;16.60;71.70;;;;;;5134223;27;20074;-44
2021/05/29 08:23:45;;;;;;;4.90;4.20;;;16.60;71.70;;;;;;5125690;27;20086;-47
2021/05/29 08:26:11;;;;;;;6.18;4.03;;;16.60;71.70;;;;;;5113287;28;20112;-49
2021/05/29 08:28:37;;;;;;;4.97;4.05;;;16.60;71.70;;;;;;5112956;28;20039;-42
2021/05/29 08:31:04;;;;;;;4.57;3.75;;;16.60;71.70;;;;;;5113269;28;20043;-41
2021/05/29 08:33:30;;;;;;;4.47;3.80;;;16.70;71.80;;;;;;5113321;28;20099;-44
2021/05/29 08:35:56;;;;;;;6.07;4.10;;;16.60;71.70;;;;;;5113014;28;20039;-41
2021/05/29 08:38:22;;;;;;;4.25;3.75;;;16.60;71.70;;;;;;5112577;28;20062;-44
2021/05/29 08:40:48;;;;;;;5.30;3.78;;;16.60;71.70;;;;;;5113022;28;20035;-47
2021/05/29 08:43:13;;;;;;;4.13;3.60;;;16.60;71.70;;;;;;5112527;28;20057;-43
2021/05/29 08:45:41;;;;;;;5.07;3.60;;;16.60;71.70;;;;;;5112919;28;20503;-45
2021/05/29 08:48:07;;;;;;;4.40;3.50;;;16.60;71.70;;;;;;5113104;28;20047;-43
2021/05/29 08:50:33;;;;;;;3.50;3.15;;;16.60;71.70;;;;;;5112709;28;20067;-43
2021/05/29 08:52:59;;;;;;;3.85;3.35;;;16.60;71.70;;;;;;5112859;28;20048;-43
2021/05/29 08:55:24;;;;;;;4.38;3.45;;;16.60;71.70;;;;;;5113120;28;20089;-45
2021/05/29 08:57:52;;;;;;;3.85;3.17;;;16.60;71.70;;;;;;5115892;27;20536;-43
2021/05/29 09:00:21;;;;;;;4.90;3.45;;;16.60;71.70;;;;;;5122265;27;20384;-45
2021/05/29 09:03:04;;;;;;;4.10;3.30;;;16.60;71.70;;;;;;5120039;27;20052;-45
2021/05/29 09:05:56;;;;;;;4.85;3.50;;;16.60;71.60;;;;;;5121144;27;20289;-42
2021/05/29 09:08:25;;;;;;;3.78;3.17;;;16.60;71.70;;;;;;5119000;27;20054;-45
2021/05/29 09:10:57;;;;;;;3.97;2.95;;;16.60;71.60;;;;;;5123458;27;20123;-42
2021/05/29 09:13:24;;;;;;;3.70;3.30;;;16.60;71.70;;;;;;5123790;27;20035;-47
2021/05/29 09:16:02;;;;;;;4.53;3.20;;;16.60;71.60;;;;;;5122348;27;20073;-46
2021/05/29 09:18:39;;;;;;;3.22;2.92;;;16.60;71.60;;;;;;5121023;27;20077;-46
2021/05/29 09:21:31;;;;;;;4.55;3.28;;;16.70;71.70;;;;;;5113294;27;20257;-48
2021/05/29 09:24:01;;;;;;;4.00;3.15;;;16.60;71.60;;;;;;5113177;28;20051;-44
2021/05/29 09:26:49;;;;;;;3.67;2.90;;;16.60;71.60;;;;;;5113162;28;20043;-42
2021/05/29 09:29:22;;;;;;;3.97;3.40;;;16.60;71.60;;;;;;5112497;28;20051;-46
2021/05/29 09:32:02;;;;;;;4.30;3.28;;;16.70;71.70;;;;;;5112627;28;20117;-45
2021/05/29 09:34:56;;;;;;;3.63;3.10;;;16.70;71.70;;;;;;5112562;28;20044;-45
2021/05/29 09:37:25;;;;;;;3.47;2.58;;;16.70;71.60;;;;;;5112610;28;20043;-45
2021/05/29 09:39:53;;;;;;;4.03;3.05;;;16.70;71.70;;;;;;5094020;28;20139;-42
2021/05/29 09:42:27;;;;;;;3.13;2.80;;;16.70;71.70;;;;;;5112590;28;20047;-46
2021/05/29 09:44:53;;;;;;;3.80;2.88;;;16.70;71.70;;;;;;5112078;28;20048;-45
2021/05/29 09:47:19;;;;;;;4.13;3.25;;;16.70;71.70;;;;;;5112420;28;20103;-48
2021/05/29 09:49:58;;;;;;;3.47;2.72;;;16.70;71.70;;;;;;5114495;28;20054;-44
2021/05/29 09:52:40;;;;;;;2.95;2.33;;;16.70;71.60;;;;;;5116726;28;20089;-46
2021/05/29 09:55:08;;;;;;;3.33;2.78;;;16.70;71.70;;;;;;5116767;28;20050;-41
2021/05/29 09:57:57;;;;;;;3.33;2.70;;;16.70;71.60;;;;;;5116449;28;20036;-47
2021/05/29 10:00:39;;;;;;;4.13;3.25;;;16.70;71.60;;;;;;5132914;27;20051;-48
2021/05/29 10:03:06;;;;;;;3.50;2.55;;;16.70;71.60;;;;;;5137007;27;20085;-47
2021/05/29 10:05:36;;;;;;;4.57;3.30;;;16.70;71.60;;;;;;5137294;27;20047;-41
2021/05/29 10:08:03;;;;;;;4.32;2.92;;;16.70;71.60;;;;;;5136976;27;20055;-42
2021/05/29 10:10:35;;;;;;;3.50;2.60;;;16.70;71.60;;;;;;5136926;27;20490;-41
2021/05/29 10:13:02;;;;;;;3.42;2.75;;;16.80;72.40;;;;;;5136807;27;20047;-40
2021/05/29 10:15:28;;;;;;;2.80;2.45;;;16.60;71.50;;;;;;5137027;27;20051;-42
2021/05/29 10:17:57;;;;;;;2.95;2.65;;;16.80;71.70;;;;;;5127076;27;20046;-42
2021/05/29 10:20:23;;;;;;;3.40;2.53;;;16.80;71.60;;;;;;5133731;27;20043;-42
2021/05/29 10:22:49;;;;;;;3.10;2.40;;;16.80;71.60;;;;;;5136690;27;20231;-40
2021/05/29 10:25:17;;;;;;;3.20;2.47;;;16.80;72.30;;;;;;5136695;27;20460;-40
2021/05/29 10:27:53;;;;;;;3.35;2.80;;;16.80;71.60;;;;;;5126576;27;20496;-41
2021/05/29 10:30:20;;;;;;;2.47;2.28;;;16.80;71.60;;;;;;5124803;27;20536;-41
2021/05/29 10:33:12;;;;;;;3.88;2.38;;;16.80;71.60;;;;;;5126475;27;20158;-41
2021/05/29 10:35:39;;;;;;;2.90;2.40;;;16.80;71.50;;;;;;5125446;27;20063;-41
2021/05/29 10:38:07;;;;;;;2.97;2.50;;;16.80;71.60;;;;;;5124489;27;20047;-40
2021/05/29 10:40:37;;;;;;;3.22;2.92;;;16.80;71.60;;;;;;5125761;27;20039;-39
2021/05/29 10:43:30;;;;;;;2.45;2.22;;;16.80;71.50;;;;;;5126338;27;20391;-41
2021/05/29 10:45:56;;;;;;;3.17;2.47;;;16.90;71.50;;;;;;5124119;27;20044;-40
2021/05/29 10:48:25;;;;;;;2.70;2.20;;;16.80;71.50;;;;;;5123900;27;20104;-40
2021/05/29 10:51:23;;;;;;;2.92;2.47;;;16.80;71.50;;;;;;5126202;27;20122;-40
2021/05/29 10:53:56;;;;;;;6.55;4.60;;;16.90;71.60;;;;;;5123201;27;20047;-48
2021/05/29 10:56:22;;;;;;;6.45;4.55;;;16.90;70.80;;;;;;5126167;27;20043;-47
2021/05/29 10:59:03;;;;;;;5.80;4.70;;;16.90;70.00;;;;;;5125901;27;20047;-47
2021/05/29 11:01:36;;;;;;;6.43;4.93;;;16.70;69.10;;;;;;5121646;27;20388;-46
2021/05/29 11:04:24;;;;;;;7.28;5.00;;;16.50;68.90;;;;;;5123885;27;20051;-44
2021/05/29 11:07:01;;;;;;;5.88;4.68;;;16.20;68.50;;;;;;5122203;27;20099;-46
2021/05/29 11:09:29;;;;;;;5.90;4.60;;;16.00;69.70;;;;;;5121599;27;20043;-50
2021/05/29 11:12:01;;;;;;;7.05;5.13;;;15.90;69.20;;;;;;5124935;27;20039;-47
2021/05/29 11:14:47;;;;;;;6.22;4.97;;;15.90;69.20;;;;;;5121534;27;20494;-52
2021/05/29 11:17:14;;;;;;;6.18;4.95;;;15.80;69.20;;;;;;5123848;27;20061;-51
2021/05/29 11:19:41;;;;;;;4.85;3.97;;;15.70;69.30;;;;;;5126449;27;20044;-48
2021/05/29 11:22:22;;;;;;;6.75;4.75;;;15.60;69.20;;;;;;5125313;27;20043;-49
2021/05/29 11:24:53;;;;;;;6.03;5.30;;;15.50;69.20;;;;;;5123785;27;20044;-44
2021/05/29 11:27:30;;;;;;;6.43;4.72;;;15.40;69.50;;;;;;5124114;27;20036;-49
2021/05/29 11:30:05;;;;;;;8.60;5.47;;;15.50;69.20;;;;;;5123794;27;20047;-49
2021/05/29 11:35:19;;;;;;;7.45;5.05;;;15.60;69.20;;;;;;5124468;27;19926;-45
2021/05/29 11:38:22;;;;;;;6.97;4.70;;;15.80;69.40;;;;;;5122780;27;20400;-51
2021/05/29 11:40:56;;;;;;;7.03;4.93;;;16.00;68.80;;;;;;5123616;27;20044;-50
2021/05/29 11:43:40;;;;;;;8.57;5.22;;;16.10;68.60;;;;;;5130650;27;20395;-44
2021/05/29 11:46:14;;;;;;;11.00;4.65;;;16.10;68.00;;;;;;5135144;27;20116;-44
2021/05/29 11:48:48;;;;;;;8.50;5.47;;;16.20;67.80;;;;;;5127940;27;20038;-44
2021/05/29 11:51:18;;;;;;;15.27;5.60;;;16.20;67.80;;;;;;5125220;27;20043;-46
2021/05/29 11:54:05;;;;;;;10.18;5.53;;;16.30;67.80;;;;;;5123941;27;20293;-47
2021/05/29 11:56:40;;;;;;;9.00;5.88;;;16.30;67.80;;;;;;5124800;27;20043;-47
2021/05/29 11:59:09;;;;;;;6.53;5.53;;;16.30;67.80;;;;;;5124139;27;20055;-44
2021/05/29 12:01:35;;;;;;;7.43;5.50;;;16.40;68.00;;;;;;5123202;27;20059;-45
2021/05/29 12:04:03;;;;;;;8.43;5.28;;;16.40;68.10;;;;;;5124678;27;20521;-45
2021/05/29 12:06:42;;;;;;;7.13;4.60;;;16.50;68.20;;;;;;5124430;27;20047;-44
2021/05/29 12:09:13;;;;;;;8.32;5.68;;;16.50;68.40;;;;;;5123115;27;20047;-44
2021/05/29 12:11:50;;;;;;;7.57;4.65;;;16.50;68.40;;;;;;5120530;27;20055;-48
2021/05/29 12:14:19;;;;;;;7.20;4.60;;;16.60;68.50;;;;;;5121848;27;20035;-46
2021/05/29 12:16:57;;;;;;;4.95;4.32;;;16.60;68.70;;;;;;5123794;27;20043;-46
2021/05/29 12:19:40;;;;;;;7.80;5.03;;;16.60;68.70;;;;;;5121839;27;20046;-46
2021/05/29 12:22:09;;;;;;;5.78;4.50;;;16.60;68.80;;;;;;5115279;27;20067;-46
2021/05/29 12:24:37;;;;;;;5.90;4.38;;;16.60;68.90;;;;;;5113750;28;20407;-44
2021/05/29 12:27:03;;;;;;;5.10;3.90;;;16.70;69.00;;;;;;5113772;28;20114;-51
2021/05/29 12:29:29;;;;;;;5.68;4.15;;;16.70;69.10;;;;;;5113748;28;20043;-46
2021/05/29 12:31:57;;;;;;;5.40;4.10;;;16.70;69.20;;;;;;5113659;28;20436;-47
2021/05/29 12:34:26;;;;;;;6.50;4.07;;;16.70;69.20;;;;;;5113230;28;20047;-47
2021/05/29 12:37:04;;;;;;;5.45;4.00;;;16.70;69.30;;;;;;5121061;27;20356;-41
2021/05/29 12:40:11;;;;;;;5.80;4.10;;;16.70;69.30;;;;;;5121669;27;20039;-47
2021/05/29 12:42:52;;;;;;;4.90;3.50;;;16.70;69.40;;;;;;5115638;27;20063;-47
2021/05/29 12:45:31;;;;;;;5.00;3.78;;;16.70;69.40;;;;;;5121983;27;20046;-48
2021/05/29 12:48:05;;;;;;;6.05;3.80;;;16.80;69.50;;;;;;5122104;27;20054;-45
2021/05/29 12:50:39;;;;;;;5.47;3.72;;;16.80;69.50;;;;;;5121795;27;20511;-47
2021/05/29 12:53:16;;;;;;;5.93;3.55;;;16.80;69.60;;;;;;5119883;27;20047;-49
2021/05/29 12:55:44;;;;;;;4.03;3.40;;;16.80;69.60;;;;;;5119248;27;20048;-44
2021/05/29 12:58:13;;;;;;;5.60;3.28;;;16.80;69.60;;;;;;5122939;27;20043;-45
2021/05/29 13:11:41;;;;;;;3.80;3.25;;;16.90;69.70;;;;;;5122629;27;20084;-48
2021/05/29 13:14:10;;;;;;;4.50;3.60;;;16.90;69.70;;;;;;5119247;27;20063;-46
2021/05/29 13:16:49;;;;;;;5.05;3.50;;;16.90;69.70;;;;;;5122255;27;20039;-46
2021/05/29 13:19:15;;;;;;;3.85;3.17;;;16.90;69.80;;;;;;5121786;27;20543;-49
2021/05/29 13:21:58;;;;;;;3.53;3.10;;;16.90;69.80;;;;;;5123955;27;20379;-45
2021/05/29 13:24:43;;;;;;;3.55;3.05;;;16.90;69.70;;;;;;5123145;27;20490;-44